createdAt,value
2022-09-12T00:01:29.388Z,3.30
2022-09-12T00:04:02.191Z,3.80
2022-09-12T00:06:34.642Z,3.50
2022-09-12T00:09:11.064Z,3.60
2022-09-12T00:14:24.786Z,4.10
2022-09-12T00:17:07.149Z,3.00
2022-09-12T00:19:36.125Z,3.40
2022-09-12T00:22:05.624Z,3.30
2022-09-12T00:24:34.983Z,3.50
2022-09-12T00:27:04.650Z,3.30
2022-09-12T00:29:47.266Z,3.50
2022-09-12T00:32:17.985Z,3.70
2022-09-12T00:35:00.521Z,3.10
2022-09-12T00:37:30.206Z,3.40
2022-09-12T00:39:59.798Z,3.20
2022-09-12T00:42:28.788Z,3.00
2022-09-12T00:45:27.780Z,3.50
2022-09-12T00:48:03.070Z,4.00
2022-09-12T00:50:33.651Z,3.90
2022-09-12T00:53:17.641Z,3.10
2022-09-12T00:55:50.629Z,3.40
2022-09-12T00:58:42.222Z,3.00
2022-09-12T01:01:11.643Z,2.80
2022-09-12T01:03:40.807Z,3.00
2022-09-12T01:06:24.097Z,3.70
2022-09-12T01:09:07.898Z,3.50
2022-09-12T01:11:39.372Z,3.60
2022-09-12T01:14:09.450Z,3.40
2022-09-12T01:16:38.935Z,3.60
2022-09-12T01:19:46.662Z,3.10
2022-09-12T01:22:41.785Z,4.30
2022-09-12T01:25:38.139Z,3.90
2022-09-12T01:28:35.847Z,3.20
2022-09-12T01:31:10.865Z,3.50
2022-09-12T01:33:58.890Z,3.50
2022-09-12T01:36:46.704Z,3.40
2022-09-12T01:39:23.662Z,3.20
2022-09-12T01:41:56.550Z,3.10
2022-09-12T01:45:11.740Z,3.30
2022-09-12T01:47:47.034Z,3.60
2022-09-12T01:50:29.703Z,4.50
2022-09-12T01:53:05.467Z,3.70
2022-09-12T01:55:43.346Z,3.20
2022-09-12T01:58:21.670Z,3.70
2022-09-12T02:01:33.723Z,3.20
2022-09-12T02:04:54.136Z,3.30
2022-09-12T02:07:50.305Z,2.70
2022-09-12T02:10:30.363Z,3.70
2022-09-12T02:13:01.775Z,3.70
2022-09-12T02:15:59.106Z,3.10
2022-09-12T02:18:30.312Z,3.70
2022-09-12T02:21:01.352Z,3.30
2022-09-12T02:23:49.375Z,3.10
2022-09-12T02:26:28.100Z,3.20
2022-09-12T02:28:58.010Z,2.80
2022-09-12T02:31:54.087Z,3.50
2022-09-12T02:35:16.214Z,3.90
2022-09-12T02:38:09.825Z,3.70
2022-09-12T02:40:39.446Z,3.10
2022-09-12T02:43:08.582Z,3.30
2022-09-12T02:45:38.314Z,3.40
2022-09-12T02:48:31.624Z,3.40
2022-09-12T02:51:14.945Z,3.90
2022-09-12T02:53:44.379Z,4.20
2022-09-12T02:56:20.335Z,3.60
2022-09-12T02:58:50.200Z,3.50
2022-09-12T03:01:51.925Z,4.10
2022-09-12T03:04:40.462Z,3.40
2022-09-12T03:07:34.224Z,4.10
2022-09-12T03:10:25.248Z,3.60
2022-09-12T03:13:19.054Z,3.30
2022-09-12T03:16:12.745Z,3.20
2022-09-12T03:19:14.103Z,3.40
2022-09-12T03:21:56.651Z,3.90
2022-09-12T03:24:58.090Z,3.00
2022-09-12T03:27:36.844Z,2.80
2022-09-12T03:30:19.808Z,3.90
2022-09-12T03:32:55.677Z,3.00
2022-09-12T03:35:39.045Z,3.50
2022-09-12T03:38:08.429Z,3.00
2022-09-12T03:40:54.681Z,3.70
2022-09-12T03:43:24.871Z,4.20
2022-09-12T03:45:54.707Z,3.70
2022-09-12T03:48:24.276Z,4.00
2022-09-12T03:51:09.706Z,3.90
2022-09-12T03:53:52.141Z,4.00
2022-09-12T03:56:21.497Z,3.50
2022-09-12T03:58:50.502Z,3.70
2022-09-12T04:01:33.984Z,3.50
2022-09-12T04:04:16.834Z,3.70
2022-09-12T04:06:46.055Z,3.70
2022-09-12T04:09:15.586Z,3.80
2022-09-12T04:11:45.218Z,3.70
2022-09-12T04:14:14.488Z,3.60
2022-09-12T04:16:43.963Z,3.70
2022-09-12T04:19:14.054Z,3.20
2022-09-12T04:21:43.878Z,3.40
2022-09-12T04:24:13.472Z,2.50
2022-09-12T04:26:42.654Z,3.30
2022-09-12T04:29:13.224Z,3.00
2022-09-12T04:31:42.873Z,3.00
2022-09-12T04:34:11.895Z,3.10
2022-09-12T04:36:40.877Z,3.50
2022-09-12T04:39:12.862Z,3.20
2022-09-12T04:41:42.675Z,2.80
2022-09-12T04:44:25.784Z,2.80
2022-09-12T04:47:08.366Z,3.30
2022-09-12T04:49:37.865Z,3.40
2022-09-12T04:52:08.307Z,3.20
2022-09-12T04:54:38.470Z,3.10
2022-09-12T04:57:07.532Z,3.20
2022-09-12T04:59:36.816Z,3.70
2022-09-12T05:02:06.161Z,3.10
2022-09-12T05:04:36.230Z,3.10
2022-09-12T05:07:06.607Z,2.90
2022-09-12T05:09:49.436Z,3.40
2022-09-12T05:12:19.183Z,3.70
2022-09-12T05:14:47.991Z,3.40
2022-09-12T05:17:17.452Z,2.90
2022-09-12T05:19:48.329Z,3.70
2022-09-12T05:22:31.168Z,2.80
2022-09-12T05:25:00.269Z,3.20
2022-09-12T05:27:28.964Z,2.90
2022-09-12T05:29:57.791Z,3.00
2022-09-12T05:32:26.676Z,2.90
2022-09-12T05:34:56.317Z,2.60
2022-09-12T05:37:25.441Z,2.90
2022-09-12T05:39:54.288Z,3.00
2022-09-12T05:42:37.567Z,2.90
2022-09-12T05:45:07.387Z,3.40
2022-09-12T05:47:36.361Z,3.20
2022-09-12T05:50:11.043Z,3.00
2022-09-12T05:52:55.103Z,3.40
2022-09-12T05:55:24.613Z,3.30
2022-09-12T05:57:54.760Z,2.80
2022-09-12T06:00:24.607Z,2.80
2022-09-12T06:02:53.985Z,2.90
2022-09-12T06:05:23.160Z,2.30
2022-09-12T06:07:52.707Z,3.20
2022-09-12T06:10:23.740Z,3.30
2022-09-12T06:12:52.727Z,2.80
2022-09-12T06:15:36.044Z,2.50
2022-09-12T06:18:05.483Z,3.10
2022-09-12T06:20:37.731Z,3.00
2022-09-12T06:23:09.388Z,2.50
2022-09-12T06:25:38.460Z,2.70
2022-09-12T06:28:08.740Z,2.90
2022-09-12T06:30:38.105Z,2.50
2022-09-12T06:33:21.348Z,3.00
2022-09-12T06:35:51.302Z,2.90
2022-09-12T06:38:26.774Z,2.50
2022-09-12T06:40:56.712Z,2.30
2022-09-12T06:43:41.084Z,2.80
2022-09-12T06:46:11.477Z,2.50
2022-09-12T06:48:56.214Z,2.90
2022-09-12T06:51:27.099Z,2.80
2022-09-12T06:53:57.980Z,2.30
2022-09-12T06:56:40.500Z,2.40
2022-09-12T06:59:23.583Z,2.30
2022-09-12T07:02:06.799Z,2.40
2022-09-12T07:04:37.752Z,2.50
2022-09-12T07:07:07.145Z,2.30
2022-09-12T07:09:50.156Z,1.80
2022-09-12T07:12:18.750Z,2.10
2022-09-12T07:14:48.569Z,1.80
2022-09-12T07:17:17.855Z,2.00
2022-09-12T07:19:46.729Z,2.40
2022-09-12T07:22:29.688Z,2.10
2022-09-12T07:24:59.388Z,1.60
2022-09-12T07:27:42.155Z,2.00
2022-09-12T07:30:11.707Z,2.00
2022-09-12T07:33:17.646Z,2.10
2022-09-12T07:36:05.499Z,2.00
2022-09-12T07:38:37.489Z,2.00
2022-09-12T07:41:25.653Z,2.20
2022-09-12T07:44:00.207Z,2.30
2022-09-12T07:46:32.184Z,2.30
2022-09-12T07:49:02.955Z,2.90
2022-09-12T07:51:46.028Z,2.20
2022-09-12T07:54:15.033Z,2.40
2022-09-12T07:56:43.900Z,1.90
2022-09-12T07:59:25.368Z,2.50
2022-09-12T08:02:04.493Z,1.80
2022-09-12T08:04:33.764Z,2.60
2022-09-12T08:07:03.254Z,2.20
2022-09-12T08:09:32.379Z,2.20
2022-09-12T08:12:01.684Z,2.30
2022-09-12T08:14:31.577Z,1.90
2022-09-12T08:17:00.571Z,2.60
2022-09-12T08:19:29.975Z,2.20
2022-09-12T08:22:06.112Z,2.00
2022-09-12T08:24:36.673Z,2.00
2022-09-12T08:27:19.158Z,2.00
2022-09-12T08:29:48.130Z,2.00
2022-09-12T08:32:17.089Z,1.80
2022-09-12T08:34:46.309Z,2.30
2022-09-12T08:37:16.023Z,1.90
2022-09-12T08:39:44.979Z,1.90
2022-09-12T08:42:43.134Z,1.80
2022-09-12T08:46:00.640Z,1.80
2022-09-12T08:49:19.432Z,1.50
2022-09-12T08:52:32.037Z,1.40
2022-09-12T08:55:23.652Z,1.70
2022-09-12T08:57:53.677Z,2.30
2022-09-12T09:00:23.346Z,1.90
2022-09-12T09:03:46.930Z,2.00
2022-09-12T09:07:01.955Z,1.40
2022-09-12T09:10:04.522Z,2.10
2022-09-12T09:12:55.723Z,2.00
2022-09-12T09:16:03.441Z,1.50
2022-09-12T09:18:37.879Z,1.90
2022-09-12T09:21:46.300Z,1.40
2022-09-12T09:24:21.154Z,1.60
2022-09-12T09:27:14.290Z,1.80
2022-09-12T09:30:29.455Z,2.00
2022-09-12T09:33:22.726Z,1.50
2022-09-12T09:36:45.475Z,2.20
2022-09-12T09:42:20.783Z,1.80
2022-09-12T09:47:55.491Z,1.80
2022-09-12T09:50:25.027Z,2.10
2022-09-12T09:52:56.343Z,1.90
2022-09-12T09:55:31.335Z,1.70
2022-09-12T09:58:00.816Z,1.40
2022-09-12T10:00:36.197Z,1.60
2022-09-12T10:03:13.808Z,1.40
2022-09-12T10:05:50.028Z,0.90
2022-09-12T10:08:33.196Z,1.40
2022-09-12T10:11:20.889Z,1.20
2022-09-12T10:14:00.996Z,1.70
2022-09-12T10:16:35.891Z,1.30
2022-09-12T10:19:05.292Z,1.30
2022-09-12T10:22:01.476Z,1.40
2022-09-12T10:24:38.305Z,1.40
2022-09-12T10:27:24.876Z,1.50
2022-09-12T10:30:17.756Z,1.50
2022-09-12T10:32:52.671Z,1.70
2022-09-12T10:35:25.328Z,1.50
2022-09-12T10:38:02.497Z,1.30
2022-09-12T10:40:45.351Z,1.40
2022-09-12T10:43:31.652Z,1.50
2022-09-12T10:46:19.884Z,1.70
2022-09-12T10:49:12.872Z,1.90
2022-09-12T10:51:42.251Z,1.50
2022-09-12T10:54:15.934Z,1.20
2022-09-12T10:57:08.059Z,1.40
2022-09-12T11:00:28.077Z,1.30
2022-09-12T11:03:05.884Z,1.20
2022-09-12T11:05:42.513Z,1.30
2022-09-12T11:08:49.786Z,1.40
2022-09-12T11:11:19.177Z,1.60
2022-09-12T11:14:22.251Z,1.60
2022-09-12T11:17:29.328Z,1.70
2022-09-12T11:20:24.171Z,1.60
2022-09-12T11:23:12.031Z,1.50
2022-09-12T11:26:03.922Z,1.50
2022-09-12T11:28:52.033Z,1.00
2022-09-12T11:31:52.399Z,1.20
2022-09-12T11:35:08.849Z,1.60
2022-09-12T11:38:16.107Z,1.30
2022-09-12T11:41:11.540Z,0.90
2022-09-12T11:43:49.400Z,1.00
2022-09-12T11:46:32.331Z,1.10
2022-09-12T11:49:35.760Z,0.60
2022-09-12T11:52:18.319Z,0.70
2022-09-12T11:54:59.669Z,0.50
2022-09-12T11:57:40.151Z,0.80
2022-09-12T12:00:40.615Z,0.80
2022-09-12T12:03:31.660Z,0.80
2022-09-12T12:06:21.693Z,0.90
2022-09-12T12:08:52.485Z,0.90
2022-09-12T12:11:40.588Z,0.70
2022-09-12T12:14:25.984Z,0.80
2022-09-12T12:17:30.295Z,1.00
2022-09-12T12:20:07.670Z,1.00
2022-09-12T12:22:37.933Z,1.10
2022-09-12T12:25:13.038Z,1.40
2022-09-12T12:27:47.591Z,1.20
2022-09-12T12:30:38.652Z,1.20
2022-09-12T12:33:28.163Z,1.60
2022-09-12T12:36:05.351Z,1.10
2022-09-12T12:38:39.809Z,1.10
2022-09-12T12:41:23.498Z,1.20
2022-09-12T12:43:56.676Z,1.70
2022-09-12T12:46:30.501Z,1.10
2022-09-12T12:49:20.833Z,1.00
2022-09-12T12:51:55.638Z,1.20
2022-09-12T12:54:41.384Z,1.30
2022-09-12T12:57:31.595Z,1.30
2022-09-12T13:00:32.950Z,1.40
2022-09-12T13:03:04.707Z,0.90
2022-09-12T13:05:47.329Z,1.10
2022-09-12T13:08:23.979Z,1.30
2022-09-12T13:10:58.293Z,0.90
2022-09-12T13:13:46.018Z,1.20
2022-09-12T13:16:48.410Z,0.80
2022-09-12T13:19:33.470Z,1.10
2022-09-12T13:22:15.997Z,1.30
2022-09-12T13:24:52.405Z,1.20
2022-09-12T13:30:15.504Z,1.30
2022-09-12T13:32:44.774Z,0.90
2022-09-12T13:35:34.976Z,1.10
2022-09-12T13:38:36.037Z,1.20
2022-09-12T13:41:42.542Z,1.30
2022-09-12T13:44:15.356Z,1.80
2022-09-12T13:46:44.547Z,1.60
2022-09-12T13:49:37.590Z,1.30
2022-09-12T13:52:23.670Z,1.50
2022-09-12T13:54:55.817Z,1.00
2022-09-12T13:57:37.971Z,1.50
2022-09-12T14:00:22.750Z,1.50
2022-09-12T14:06:13.040Z,1.50
2022-09-12T14:08:43.592Z,1.30
2022-09-12T14:11:17.955Z,1.30
2022-09-12T14:13:47.156Z,1.20
2022-09-12T14:16:17.528Z,1.10
2022-09-12T14:18:50.371Z,1.10
2022-09-12T14:21:34.591Z,1.40
2022-09-12T14:24:10.817Z,1.00
2022-09-12T14:26:44.884Z,1.10
2022-09-12T14:29:27.885Z,1.20
2022-09-12T14:32:05.441Z,1.40
2022-09-12T14:34:34.616Z,2.10
2022-09-12T14:37:07.352Z,1.60
2022-09-12T14:39:45.347Z,1.30
2022-09-12T14:42:22.447Z,1.40
2022-09-12T14:45:04.717Z,1.20
2022-09-12T14:47:51.510Z,1.50
2022-09-12T14:53:19.998Z,1.50
2022-09-12T14:56:06.582Z,1.40
2022-09-12T15:01:08.490Z,1.40
2022-09-12T15:03:48.866Z,0.90
2022-09-12T15:06:33.416Z,1.00
2022-09-12T15:09:13.578Z,1.20
2022-09-12T15:11:42.340Z,1.60
2022-09-12T15:14:15.289Z,0.90
2022-09-12T15:16:44.555Z,1.00
2022-09-12T15:19:13.622Z,1.10
2022-09-12T15:21:42.999Z,0.90
2022-09-12T15:24:21.477Z,0.90
2022-09-12T15:27:11.733Z,1.50
2022-09-12T15:29:40.278Z,1.20
2022-09-12T15:32:15.458Z,0.90
2022-09-12T15:35:02.403Z,0.60
2022-09-12T15:37:37.474Z,1.30
2022-09-12T15:40:06.897Z,1.20
2022-09-12T15:42:35.702Z,0.90
2022-09-12T15:45:15.559Z,1.10
2022-09-12T15:47:45.204Z,1.10
2022-09-12T15:50:14.591Z,1.00
2022-09-12T15:52:43.941Z,1.20
2022-09-12T15:55:32.496Z,0.90
2022-09-12T15:58:06.280Z,0.90
2022-09-12T16:00:49.628Z,1.20
2022-09-12T16:03:33.050Z,1.30
2022-09-12T16:06:03.549Z,1.50
2022-09-12T16:08:33.441Z,0.90
2022-09-12T16:11:22.581Z,1.30
2022-09-12T16:13:55.541Z,1.80
2022-09-12T16:16:24.475Z,1.50
2022-09-12T16:18:53.419Z,1.20
2022-09-12T16:21:22.557Z,1.10
2022-09-12T16:23:51.716Z,1.30
2022-09-12T16:26:34.510Z,1.20
2022-09-12T16:29:03.559Z,1.20
2022-09-12T16:31:33.156Z,1.30
2022-09-12T16:34:02.093Z,1.30
2022-09-12T16:36:31.051Z,1.20
2022-09-12T16:39:00.410Z,1.30
2022-09-12T16:41:29.327Z,1.20
2022-09-12T16:43:58.522Z,1.70
2022-09-12T16:46:29.378Z,1.20
2022-09-12T16:49:12.668Z,1.20
2022-09-12T16:51:55.178Z,1.50
2022-09-12T16:54:42.178Z,2.00
2022-09-12T16:57:25.005Z,1.50
2022-09-12T17:00:08.522Z,1.30
2022-09-12T17:02:37.467Z,1.70
2022-09-12T17:05:07.649Z,1.60
2022-09-12T17:07:36.591Z,1.90
2022-09-12T17:10:05.693Z,1.70
2022-09-12T17:12:35.242Z,2.50
2022-09-12T17:15:04.541Z,1.70
2022-09-12T17:17:33.755Z,1.90
2022-09-12T17:20:02.808Z,2.30
2022-09-12T17:22:32.675Z,1.80
2022-09-12T17:25:06.689Z,2.40
2022-09-12T17:27:51.651Z,1.20
2022-09-12T17:30:23.424Z,1.90
2022-09-12T17:32:56.335Z,2.00
2022-09-12T17:35:27.230Z,1.70
2022-09-12T17:37:56.525Z,1.70
2022-09-12T17:40:42.473Z,2.10
2022-09-12T17:43:15.798Z,1.90
2022-09-12T17:45:45.526Z,1.90
2022-09-12T17:48:16.312Z,2.40
2022-09-12T17:51:08.024Z,1.90
2022-09-12T17:53:38.509Z,1.80
2022-09-12T17:56:08.992Z,1.90
2022-09-12T17:58:51.526Z,1.70
2022-09-12T18:01:38.945Z,1.50
2022-09-12T18:04:13.723Z,2.00
2022-09-12T18:06:51.227Z,2.20
2022-09-12T18:09:23.770Z,2.00
2022-09-12T18:11:53.907Z,1.50
2022-09-12T18:14:23.253Z,1.90
2022-09-12T18:16:52.429Z,2.00
2022-09-12T18:19:21.553Z,2.00
2022-09-12T18:21:50.252Z,2.10
2022-09-12T18:24:20.423Z,2.20
2022-09-12T18:26:49.061Z,2.00
2022-09-12T18:29:20.639Z,2.80
2022-09-12T18:31:50.896Z,3.00
2022-09-12T18:34:20.898Z,2.90
2022-09-12T18:37:05.977Z,2.70
2022-09-12T18:39:35.513Z,3.50
2022-09-12T18:42:18.424Z,2.20
2022-09-12T18:44:48.280Z,2.40
2022-09-12T18:47:17.401Z,2.40
2022-09-12T18:49:46.267Z,2.10
2022-09-12T18:52:18.865Z,1.70
2022-09-12T18:54:48.196Z,2.80
2022-09-12T18:57:17.107Z,2.50
2022-09-12T18:59:59.941Z,2.50
2022-09-12T19:02:29.468Z,2.20
2022-09-12T19:04:58.478Z,2.40
2022-09-12T19:07:41.555Z,2.70
2022-09-12T19:10:10.394Z,2.00
2022-09-12T19:12:38.999Z,2.00
2022-09-12T19:15:10.213Z,2.30
2022-09-12T19:17:39.396Z,2.60
2022-09-12T19:20:08.251Z,2.30
2022-09-12T19:22:37.310Z,3.00
2022-09-12T19:25:06.813Z,4.30
2022-09-12T19:27:35.895Z,3.50
2022-09-12T19:30:05.897Z,4.30
2022-09-12T19:32:48.249Z,6.70
2022-09-12T19:35:16.713Z,8.30
2022-09-12T19:37:45.711Z,7.30
2022-09-12T19:40:15.246Z,6.70
2022-09-12T19:42:45.256Z,7.60
2022-09-12T19:45:15.532Z,8.80
2022-09-12T19:47:45.300Z,8.70
2022-09-12T19:50:29.519Z,8.70
2022-09-12T19:52:59.473Z,9.30
2022-09-12T19:55:29.478Z,8.90
2022-09-12T19:58:14.295Z,7.80
2022-09-12T20:00:43.638Z,6.50
2022-09-12T20:03:12.776Z,6.00
2022-09-12T20:05:43.002Z,5.30
2022-09-12T20:08:14.025Z,4.70
2022-09-12T20:10:44.529Z,4.40
2022-09-12T20:13:16.544Z,4.60
2022-09-12T20:15:50.543Z,4.70
2022-09-12T20:18:22.837Z,3.60
2022-09-12T20:20:55.762Z,2.90
2022-09-12T20:23:41.579Z,6.70
2022-09-12T20:26:11.675Z,7.50
2022-09-12T20:28:48.401Z,8.50
2022-09-12T20:31:34.757Z,7.80
2022-09-12T20:34:05.683Z,8.80
2022-09-12T20:36:37.714Z,8.30
2022-09-12T20:39:06.827Z,8.10
2022-09-12T20:41:36.896Z,6.20
2022-09-12T20:44:06.512Z,5.30
2022-09-12T20:46:35.389Z,4.80
2022-09-12T20:49:04.866Z,5.40
2022-09-12T20:51:36.778Z,5.90
2022-09-12T20:54:07.483Z,6.80
2022-09-12T20:56:37.653Z,7.10
2022-09-12T20:59:22.279Z,5.70
2022-09-12T21:01:51.210Z,17.60
2022-09-12T21:04:20.272Z,25.60
2022-09-12T21:06:48.912Z,10.30
2022-09-12T21:09:25.919Z,10.10
2022-09-12T21:11:55.159Z,8.20
2022-09-12T21:14:23.672Z,8.40
2022-09-12T21:16:53.034Z,7.70
2022-09-12T21:19:35.314Z,8.50
2022-09-12T21:22:04.440Z,9.10
2022-09-12T21:24:47.140Z,10.70
2022-09-12T21:27:30.023Z,14.70
2022-09-12T21:30:00.169Z,21.80
2022-09-12T21:32:35.084Z,13.40
2022-09-12T21:35:38.549Z,8.40
2022-09-12T21:38:07.914Z,6.80
2022-09-12T21:40:37.485Z,6.20
2022-09-12T21:43:11.843Z,6.70
2022-09-12T21:45:42.367Z,6.00
2022-09-12T21:48:11.936Z,5.50
2022-09-12T21:50:55.102Z,5.90
2022-09-12T21:53:24.679Z,5.90
2022-09-12T21:55:54.336Z,5.10
2022-09-12T21:58:37.789Z,5.30
2022-09-12T22:01:11.225Z,5.20
2022-09-12T22:03:54.036Z,5.50
2022-09-12T22:06:23.360Z,5.10
2022-09-12T22:09:06.689Z,5.70
2022-09-12T22:11:49.391Z,4.90
2022-09-12T22:14:18.063Z,5.20
2022-09-12T22:16:47.337Z,6.50
2022-09-12T22:19:16.407Z,6.10
2022-09-12T22:22:04.407Z,6.40
2022-09-12T22:24:47.349Z,7.10
2022-09-12T22:27:29.795Z,6.00
2022-09-12T22:30:13.247Z,6.80
2022-09-12T22:32:42.814Z,9.40
2022-09-12T22:35:11.988Z,8.60
2022-09-12T22:37:41.800Z,9.30
2022-09-12T22:40:12.587Z,10.10
2022-09-12T22:42:41.664Z,9.40
2022-09-12T22:45:10.914Z,7.20
2022-09-12T22:47:53.889Z,8.00
2022-09-12T22:50:23.242Z,8.80
2022-09-12T22:53:06.162Z,7.50
2022-09-12T22:55:48.989Z,7.60
2022-09-12T22:58:17.934Z,7.90
2022-09-12T23:00:53.079Z,7.70
2022-09-12T23:03:22.469Z,7.90
2022-09-12T23:05:51.995Z,7.50
2022-09-12T23:08:21.549Z,6.90
2022-09-12T23:10:51.064Z,7.10
2022-09-12T23:13:19.990Z,7.10
2022-09-12T23:15:57.475Z,6.80
2022-09-12T23:18:27.859Z,7.60
2022-09-12T23:21:09.829Z,7.70
2022-09-12T23:23:40.112Z,7.50
2022-09-12T23:26:18.702Z,8.10
2022-09-12T23:28:51.172Z,8.50
2022-09-12T23:31:21.608Z,9.10
2022-09-12T23:34:06.816Z,7.80
2022-09-12T23:36:36.522Z,8.60
2022-09-12T23:39:19.078Z,7.90
2022-09-12T23:42:01.567Z,7.50
2022-09-12T23:44:44.511Z,7.40
2022-09-12T23:47:13.647Z,6.00
2022-09-12T23:49:56.634Z,6.40
2022-09-12T23:52:25.686Z,7.50
2022-09-12T23:55:08.900Z,6.60
2022-09-12T23:57:39.575Z,6.40
